Time;durP1;ratioP1;P1;durP2;ratioP2;P2;SDS_P1;SDS_P2;PMS_P1;PMS_P2;Temp;Humidity;BMP_temperature;BMP_pressure;BME280_temperature;BME280_humidity;BME280_pressure;Samples;Min_cycle;Max_cycle;Signal;HPM_P1;HPM_P2
2024/01/09 00:01:09;;;;;;;27.55;14.65;;;;;;;-1.62;100.00;101025.69;5086956;28;20028;-70
2024/01/09 00:03:35;;;;;;;26.90;14.98;;;;;;;-1.42;100.00;101057.19;5069013;28;20066;-69
2024/01/09 00:06:00;;;;;;;28.58;16.67;;;;;;;-1.64;100.00;101018.97;5087819;28;20031;-68
2024/01/09 00:08:26;;;;;;;28.48;17.40;;;;;;;-1.19;100.00;101095.47;5086603;28;20042;-69
2024/01/09 00:10:51;;;;;;;22.90;12.77;;;;;;;-1.23;100.00;101129.38;5088036;28;20067;-68
2024/01/09 00:13:17;;;;;;;26.95;16.23;;;;;;;-1.19;100.00;101121.22;5090232;28;20027;-69
2024/01/09 00:15:42;;;;;;;28.80;15.45;;;;;;;-1.18;100.00;101127.06;5090591;28;20034;-69
2024/01/09 00:18:08;;;;;;;26.90;14.43;;;;;;;-1.31;100.00;101110.81;5091020;28;20035;-69
2024/01/09 00:20:33;;;;;;;29.48;16.05;;;;;;;-1.56;100.00;101074.91;5071300;28;20024;-68
2024/01/09 00:22:58;;;;;;;26.80;15.10;;;;;;;-1.24;100.00;101111.88;5072446;28;20032;-68
2024/01/09 00:25:24;;;;;;;27.27;14.27;;;;;;;-1.30;100.00;101129.09;5090198;28;20020;-72
2024/01/09 00:27:49;;;;;;;29.55;16.48;;;;;;;-1.10;100.00;101130.72;5071642;28;20036;-68
2024/01/09 00:30:15;;;;;;;26.85;13.73;;;;;;;-1.26;100.00;101143.38;5071730;28;20146;-68
2024/01/09 00:32:46;;;;;;;30.13;16.40;;;;;;;-1.25;100.00;101122.66;5071360;28;20042;-68
2024/01/09 00:35:14;;;;;;;28.55;14.43;;;;;;;-1.38;100.00;101088.94;5072587;28;20070;-68
2024/01/09 00:37:40;;;;;;;26.35;15.50;;;;;;;-1.59;100.00;101022.47;5090914;28;20173;-69
2024/01/09 00:40:06;;;;;;;30.75;18.23;;;;;;;-1.55;100.00;101062.53;5071734;28;20498;-68
2024/01/09 00:42:32;;;;;;;19.50;10.43;;;;;;;-1.59;100.00;101048.25;5089409;28;20031;-68
2024/01/09 00:45:00;;;;;;;24.08;13.05;;;;;;;-1.52;100.00;101081.72;5090511;28;20028;-68
2024/01/09 00:47:26;;;;;;;26.80;14.68;;;;;;;-1.57;100.00;101055.78;5071824;28;20503;-68
2024/01/09 00:49:51;;;;;;;28.17;15.63;;;;;;;-1.41;100.00;101105.41;5089405;28;20034;-69
2024/01/09 00:52:17;;;;;;;30.65;17.25;;;;;;;-1.34;100.00;101134.75;5089087;28;20036;-68
2024/01/09 00:54:43;;;;;;;29.02;16.05;;;;;;;-1.39;100.00;101068.94;5090772;28;20058;-68
2024/01/09 00:57:09;;;;;;;31.75;17.40;;;;;;;-1.25;100.00;101133.47;5090520;28;20497;-68
2024/01/09 00:59:34;;;;;;;30.95;16.92;;;;;;;-1.65;100.00;101039.69;5070956;28;20028;-68
2024/01/09 01:02:00;;;;;;;25.80;14.90;;;;;;;-1.69;100.00;101045.34;5069225;28;20039;-70
2024/01/09 01:04:25;;;;;;;28.13;15.75;;;;;;;-1.69;100.00;101037.88;5089546;28;20028;-68
2024/01/09 01:06:50;;;;;;;28.63;14.57;;;;;;;-1.78;100.00;101028.38;5070874;28;20059;-68
2024/01/09 01:09:16;;;;;;;24.38;14.13;;;;;;;-1.75;100.00;101018.56;5090147;28;20034;-68
2024/01/09 01:11:41;;;;;;;26.13;14.98;;;;;;;-1.44;100.00;101072.88;5071116;28;20098;-68
2024/01/09 01:14:07;;;;;;;27.27;15.50;;;;;;;-1.29;100.00;101105.88;5070806;28;20036;-68
2024/01/09 01:16:32;;;;;;;30.35;16.85;;;;;;;-1.17;100.00;101119.63;5071151;28;20059;-68
2024/01/09 01:18:57;;;;;;;22.17;11.57;;;;;;;-1.69;100.00;101042.84;5089782;28;20032;-68
2024/01/09 01:21:23;;;;;;;24.73;14.35;;;;;;;-1.34;100.00;101123.16;5069659;28;20640;-68
2024/01/09 01:23:49;;;;;;;27.20;15.52;;;;;;;-1.38;100.00;101090.56;5070646;28;20067;-68
2024/01/09 01:26:14;;;;;;;29.38;16.75;;;;;;;-1.36;100.00;101091.47;5069977;28;20028;-68
2024/01/09 01:28:40;;;;;;;24.83;13.65;;;;;;;-1.62;100.00;101067.22;5088941;28;20028;-68
2024/01/09 01:31:06;;;;;;;26.27;15.10;;;;;;;-1.32;100.00;101149.00;5088727;28;20139;-68
2024/01/09 01:33:31;;;;;;;28.55;15.85;;;;;;;-1.25;100.00;101127.66;5089520;28;20103;-68
2024/01/09 01:35:57;;;;;;;24.40;14.25;;;;;;;-1.29;100.00;101138.31;5089397;28;20028;-69
2024/01/09 01:38:22;;;;;;;27.10;16.27;;;;;;;-0.96;100.00;101190.31;5088213;28;20063;-67
2024/01/09 01:40:48;;;;;;;28.05;15.18;;;;;;;-1.49;100.00;101095.16;5089197;28;20111;-70
2024/01/09 01:43:13;;;;;;;35.38;17.48;;;;;;;-1.39;100.00;101136.25;5089169;28;20452;-68
2024/01/09 01:45:38;;;;;;;19.83;10.90;;;;;;;-1.30;100.00;101164.00;5089485;28;20123;-68
2024/01/09 01:48:05;;;;;;;30.90;17.05;;;;;;;-1.29;100.00;101138.31;5089078;28;20395;-68
2024/01/09 01:50:31;;;;;;;24.38;14.45;;;;;;;-1.40;100.00;101142.88;5069944;28;20082;-68
2024/01/09 01:53:03;;;;;;;26.85;15.63;;;;;;;-1.39;100.00;101137.09;5088728;28;20055;-67
2024/01/09 01:55:29;;;;;;;25.02;14.65;;;;;;;-1.59;100.00;101130.50;5070942;28;20040;-68
2024/01/09 01:57:57;;;;;;;26.17;15.27;;;;;;;-1.46;100.00;101152.59;5088796;28;20505;-68
2024/01/09 02:00:25;;;;;;;24.75;15.07;;;;;;;-1.41;100.00;101165.25;5070548;28;20490;-69
2024/01/09 02:02:50;;;;;;;24.42;14.98;;;;;;;-1.83;100.00;101097.13;5069626;28;20036;-69
2024/01/09 02:05:18;;;;;;;24.88;14.57;;;;;;;-1.84;100.00;101091.28;5069767;28;20030;-69
2024/01/09 02:07:45;;;;;;;25.65;14.30;;;;;;;-1.80;100.00;101115.53;5088899;28;20060;-68
2024/01/09 02:10:11;;;;;;;25.05;14.80;;;;;;;-1.96;100.00;101068.38;5088555;28;20069;-68
2024/01/09 02:12:37;;;;;;;25.02;15.00;;;;;;;-1.32;100.00;101175.56;5087664;28;20452;-68
2024/01/09 02:15:04;;;;;;;20.50;12.07;;;;;;;-1.50;100.00;101133.31;5087990;28;20035;-69
2024/01/09 02:17:30;;;;;;;24.67;13.73;;;;;;;-1.35;100.00;101173.84;5087142;28;20067;-68
2024/01/09 02:19:58;;;;;;;19.35;10.43;;;;;;;-2.01;100.00;101074.84;5069907;28;20047;-68
2024/01/09 02:22:24;;;;;;;25.58;15.27;;;;;;;-1.70;100.00;101113.44;5088486;28;20039;-68
2024/01/09 02:24:50;;;;;;;25.00;14.57;;;;;;;-1.92;100.00;101084.28;5084940;28;20117;-69
2024/01/09 02:28:10;;;;;;;23.65;13.07;;;;;;;-1.47;100.00;101189.94;5069871;28;20479;-68
2024/01/09 02:30:37;;;;;;;28.33;13.75;;;;;;;-1.72;100.00;101132.44;5007275;28;20097;-68
2024/01/09 02:33:02;;;;;;;20.50;10.38;;;;;;;-1.90;100.00;101118.44;5069994;28;20145;-68
2024/01/09 02:35:28;;;;;;;22.30;13.60;;;;;;;-1.97;100.00;101105.69;5088105;28;20059;-68
2024/01/09 02:37:53;;;;;;;25.05;14.15;;;;;;;-1.93;100.00;101098.41;5087381;28;20467;-68
2024/01/09 02:40:19;;;;;;;25.27;14.60;;;;;;;-1.87;100.00;101106.13;5087883;28;20035;-68
2024/01/09 02:42:44;;;;;;;26.17;15.10;;;;;;;-1.77;100.00;101118.16;5088040;28;20028;-69
2024/01/09 02:45:10;;;;;;;23.52;14.45;;;;;;;-1.51;100.00;101160.69;5069996;28;20535;-68
2024/01/09 02:47:35;;;;;;;27.60;14.93;;;;;;;-1.65;100.00;101136.88;5069895;28;20478;-70
2024/01/09 02:50:01;;;;;;;26.05;15.15;;;;;;;-1.52;100.00;101151.50;5087866;28;20482;-70
2024/01/09 02:52:26;;;;;;;24.55;13.75;;;;;;;-2.18;100.00;101052.56;5069552;28;20028;-69
2024/01/09 02:54:51;;;;;;;25.95;14.32;;;;;;;-1.88;100.00;101096.94;5069209;28;20032;-68
2024/01/09 02:57:17;;;;;;;24.83;12.90;;;;;;;-2.03;100.00;101085.53;5069927;28;20462;-69
2024/01/09 02:59:42;;;;;;;25.92;15.00;;;;;;;-1.97;100.00;101076.66;5087972;28;20020;-68
2024/01/09 03:02:08;;;;;;;23.65;13.52;;;;;;;-2.16;100.00;101071.72;5087317;28;20479;-68
2024/01/09 03:04:33;;;;;;;23.75;14.57;;;;;;;-1.92;100.00;101114.19;5069495;28;20020;-68
2024/01/09 03:06:59;;;;;;;26.02;12.07;;;;;;;-2.09;100.00;101103.56;5088180;28;20066;-69
2024/01/09 03:09:25;;;;;;;22.95;12.98;;;;;;;-1.86;100.00;101130.25;5069259;28;20042;-68
2024/01/09 03:11:50;;;;;;;26.13;14.77;;;;;;;-1.63;100.00;101153.59;5086049;28;20056;-68
2024/01/09 03:14:16;;;;;;;23.50;14.00;;;;;;;-2.05;100.00;101072.16;5087865;28;20043;-67
2024/01/09 03:16:41;;;;;;;23.60;12.95;;;;;;;-1.88;100.00;101111.88;5088224;28;20024;-67
2024/01/09 03:19:06;;;;;;;25.85;10.98;;;;;;;-1.57;100.00;101153.84;5088602;28;20028;-67
2024/01/09 03:21:32;;;;;;;22.95;13.88;;;;;;;-1.46;100.00;101199.97;5070094;28;20040;-68
2024/01/09 03:23:57;;;;;;;24.35;13.70;;;;;;;-1.74;100.00;101137.34;5068911;28;20562;-71
2024/01/09 03:26:23;;;;;;;22.30;13.10;;;;;;;-1.46;100.00;101171.69;5087527;28;20119;-69
2024/01/09 03:28:49;;;;;;;21.27;12.82;;;;;;;-1.87;100.00;101136.03;5086538;28;20541;-67
2024/01/09 03:31:21;;;;;;;26.27;14.55;;;;;;;-1.61;100.00;101181.06;5088874;28;20031;-68
2024/01/09 03:33:47;;;;;;;22.88;12.90;;;;;;;-1.90;100.00;101140.88;5086346;28;20103;-67
2024/01/09 03:36:13;;;;;;;25.88;14.35;;;;;;;-1.56;100.00;101205.38;5087080;28;20558;-67
2024/01/09 03:38:38;;;;;;;23.45;13.98;;;;;;;-1.89;100.00;101161.66;5086523;28;20490;-67
2024/01/09 03:41:04;;;;;;;23.05;12.35;;;;;;;-1.73;100.00;101212.97;5067499;28;20111;-68
2024/01/09 03:43:29;;;;;;;19.58;10.55;;;;;;;-1.83;100.00;101227.53;5069368;28;20028;-68
2024/01/09 03:45:56;;;;;;;22.70;12.90;;;;;;;-1.78;100.00;103152.63;5089808;28;20031;-67
2024/01/09 03:48:22;;;;;;;22.23;12.23;;;;;;;-2.22;100.00;103000.66;5091097;28;20028;-67
2024/01/09 03:50:48;;;;;;;22.65;12.75;;;;;;;-2.34;100.00;102980.72;5091915;28;20028;-69
2024/01/09 03:53:13;;;;;;;21.92;11.80;;;;;;;-2.46;100.00;102962.41;5072261;28;20031;-67
2024/01/09 03:55:39;;;;;;;16.88;7.70;;;;;;;-2.44;100.00;102958.41;5091750;28;20036;-69
2024/01/09 03:58:04;;;;;;;21.75;12.35;;;;;;;-2.37;100.00;102987.97;5072871;28;20032;-70
2024/01/09 04:00:30;;;;;;;19.40;10.73;;;;;;;-2.12;100.00;103032.97;5072421;28;20032;-67
2024/01/09 04:02:55;;;;;;;18.88;9.38;;;;;;;-2.13;100.00;102993.84;5091283;28;20549;-67
2024/01/09 04:05:21;;;;;;;20.60;12.35;;;;;;;-1.96;100.00;103023.34;5091004;28;20024;-68
2024/01/09 04:07:46;;;;;;;24.25;12.38;;;;;;;-1.99;100.00;103004.03;5091109;28;20119;-67
2024/01/09 04:10:11;;;;;;;24.80;13.18;;;;;;;-2.01;100.00;102983.13;5072703;28;20122;-67
2024/01/09 04:12:37;;;;;;;19.27;9.77;;;;;;;-2.04;100.00;102960.47;5090979;28;20449;-71
2024/01/09 04:15:03;;;;;;;22.90;13.32;;;;;;;-1.93;100.00;102984.53;5089734;28;20027;-68
2024/01/09 04:17:28;;;;;;;24.33;13.50;;;;;;;-1.66;100.00;103050.41;5090210;28;20036;-68
2024/01/09 04:19:54;;;;;;;19.58;11.55;;;;;;;-1.92;100.00;102971.31;5071945;28;20063;-69
2024/01/09 04:22:19;;;;;;;20.92;11.05;;;;;;;-2.06;100.00;102901.34;5090724;28;20507;-68
2024/01/09 04:24:45;;;;;;;21.30;12.30;;;;;;;-2.22;100.00;102863.66;5071573;28;20032;-69
2024/01/09 04:27:10;;;;;;;23.88;13.20;;;;;;;-2.05;100.00;102890.59;5090173;28;20126;-68
2024/01/09 04:29:35;;;;;;;20.33;12.30;;;;;;;-2.03;100.00;102865.03;5090328;28;20036;-67
2024/01/09 04:32:01;;;;;;;22.40;13.18;;;;;;;-2.05;100.00;102849.13;5086495;28;20499;-68
2024/01/09 04:34:26;;;;;;;23.45;13.02;;;;;;;-2.04;100.00;102825.06;5072321;28;20077;-67
2024/01/09 04:36:52;;;;;;;23.00;13.30;;;;;;;-1.94;100.00;102828.28;5087708;28;20410;-68
2024/01/09 04:39:17;;;;;;;23.35;13.60;;;;;;;1.22;100.00;103603.16;5090574;28;20544;-72
2024/01/09 04:41:42;;;;;;;28.23;16.88;;;;;;;-0.25;100.00;103196.81;5072031;28;20103;-71
2024/01/09 04:44:08;;;;;;;25.90;14.32;;;;;;;-1.68;100.00;102861.59;5068537;28;20073;-74
2024/01/09 04:46:33;;;;;;;23.95;14.30;;;;;;;-1.50;100.00;102878.66;5073897;28;20032;-71
2024/01/09 04:49:03;;;;;;;21.88;13.82;;;;;;;-1.59;100.00;102789.91;5088784;28;20037;-70
2024/01/09 04:51:29;;;;;;;23.00;13.38;;;;;;;-1.82;100.00;102756.81;5072108;28;20039;-72
2024/01/09 04:53:54;;;;;;;21.45;12.98;;;;;;;-1.51;100.00;102801.25;5089410;28;20031;-70
2024/01/09 04:56:20;;;;;;;23.30;12.80;;;;;;;-1.65;100.00;102747.97;5071409;28;20073;-71
2024/01/09 04:58:45;;;;;;;20.52;11.85;;;;;;;-1.79;100.00;102712.19;5090263;28;20036;-75
2024/01/09 05:01:11;;;;;;;20.45;12.35;;;;;;;-1.65;100.00;102702.22;5088110;28;20036;-70
2024/01/09 05:03:37;;;;;;;23.08;12.57;;;;;;;-1.66;100.00;102695.53;5090137;28;20392;-69
2024/01/09 05:06:02;;;;;;;23.73;13.13;;;;;;;-1.88;100.00;102633.41;5076840;28;20020;-69
2024/01/09 05:08:28;;;;;;;20.90;12.27;;;;;;;-1.41;100.00;102711.28;5088582;28;20039;-69
2024/01/09 05:10:53;;;;;;;23.13;13.32;;;;;;;-1.60;100.00;102626.94;5074909;28;20186;-73
2024/01/09 05:13:19;;;;;;;21.98;13.13;;;;;;;-1.88;100.00;102581.97;5088937;28;20097;-71
2024/01/09 05:15:44;;;;;;;24.55;13.38;;;;;;;-1.76;100.00;102599.31;5074334;28;20070;-68
2024/01/09 05:18:09;;;;;;;22.42;12.52;;;;;;;-1.65;100.00;102614.97;5089804;28;20032;-68
2024/01/09 05:20:35;;;;;;;22.27;11.77;;;;;;;-1.86;100.00;102543.03;5074395;28;20024;-70
2024/01/09 05:23:00;;;;;;;20.40;11.30;;;;;;;-1.79;100.00;102520.25;4380083;28;10000997;-69
2024/01/09 05:25:25;;;;;;;21.25;11.13;;;;;;;-1.93;100.00;102453.72;5085912;28;20047;-69
2024/01/09 05:27:51;;;;;;;21.30;12.07;;;;;;;-1.94;100.00;102436.19;5085915;28;20044;-69
2024/01/09 05:30:16;;;;;;;24.60;12.35;;;;;;;-1.90;100.00;102438.94;5087975;28;20028;-68
2024/01/09 05:32:42;;;;;;;19.67;11.70;;;;;;;-1.41;100.00;102496.81;5088139;28;20047;-69
2024/01/09 05:35:09;;;;;;;21.67;11.85;;;;;;;-1.75;100.00;102416.59;5085078;28;20484;-69
2024/01/09 05:37:35;;;;;;;19.83;11.93;;;;;;;-1.94;100.00;102393.84;5069057;28;20028;-68
2024/01/09 05:40:00;;;;;;;21.60;12.60;;;;;;;-1.83;100.00;102388.72;5082117;28;20460;-72
2024/01/09 05:42:25;;;;;;;19.42;11.85;;;;;;;-1.82;100.00;102375.50;5085469;28;20063;-70
2024/01/09 05:44:51;;;;;;;22.10;11.88;;;;;;;-1.81;100.00;102361.41;5086739;28;20044;-69
2024/01/09 05:47:16;;;;;;;20.42;10.27;;;;;;;-2.06;100.00;102271.84;5069764;28;20482;-71
2024/01/09 05:49:42;;;;;;;21.00;12.43;;;;;;;-1.22;100.00;102402.31;5086316;28;20167;-69
2024/01/09 05:52:07;;;;;;;22.23;13.10;;;;;;;-2.29;100.00;102175.00;5085825;28;20040;-73
2024/01/09 05:54:32;;;;;;;23.67;13.40;;;;;;;-2.31;100.00;102160.72;5086424;28;20059;-70
2024/01/09 05:57:03;;;;;;;22.42;13.18;;;;;;;-2.03;100.00;102159.94;5088005;28;20165;-70
2024/01/09 05:59:29;;;;;;;19.83;12.63;;;;;;;-2.49;100.00;102099.91;5090433;28;20032;-73
2024/01/09 06:01:54;;;;;;;22.63;13.55;;;;;;;-2.09;100.00;102142.16;5088887;28;20182;-70
2024/01/09 06:04:22;;;;;;;21.35;12.93;;;;;;;-2.11;100.00;102073.94;5073685;28;20130;-69
2024/01/09 06:06:48;;;;;;;23.75;13.65;;;;;;;-2.47;100.00;102023.69;5088068;28;20032;-71
2024/01/09 06:09:14;;;;;;;22.42;13.35;;;;;;;-2.40;100.00;102026.63;5088495;28;20638;-68
2024/01/09 06:11:39;;;;;;;22.63;14.25;;;;;;;-2.18;100.00;102039.50;5074726;28;20502;-73
2024/01/09 06:14:04;;;;;;;29.85;17.30;;;;;;;-2.10;100.00;102043.28;5087977;28;20039;-69
2024/01/09 06:16:33;;;;;;;30.88;16.30;;;;;;;-2.19;100.00;102032.81;5089007;28;20028;-71
2024/01/09 06:18:58;;;;;;;24.52;16.33;;;;;;;-2.12;100.00;102034.03;5072910;28;20043;-72
2024/01/09 06:21:24;;;;;;;36.03;18.25;;;;;;;-2.31;100.00;101991.41;5073409;28;20478;-71
2024/01/09 06:23:49;;;;;;;32.38;15.73;;;;;;;-2.24;100.00;101984.34;5088096;28;20616;-71
2024/01/09 06:26:15;;;;;;;37.10;17.70;;;;;;;-2.30;100.00;101940.84;5072186;28;20038;-70
2024/01/09 06:28:42;;;;;;;23.58;13.25;;;;;;;-2.52;100.00;101886.53;5089232;28;20032;-71
2024/01/09 06:31:07;;;;;;;22.58;13.57;;;;;;;-2.65;100.00;101839.34;5089087;28;20124;-70
2024/01/09 06:33:51;;;;;;;28.05;14.27;;;;;;;-2.42;100.00;101833.13;5072747;28;20032;-72
2024/01/09 06:36:16;;;;;;;21.08;11.13;;;;;;;-2.63;100.00;101806.31;5073371;28;20038;-70
2024/01/09 06:38:42;;;;;;;20.63;12.10;;;;;;;-2.79;100.00;101780.50;5088690;28;20467;-72
2024/01/09 06:41:12;;;;;;;22.52;12.65;;;;;;;-2.48;100.00;101821.22;5088744;28;20035;-69
2024/01/09 06:43:38;;;;;;;22.40;13.00;;;;;;;-3.06;100.00;101695.31;5088911;28;20035;-72
2024/01/09 06:46:03;;;;;;;18.10;10.63;;;;;;;-3.01;100.00;101716.28;5073222;28;20089;-75
2024/01/09 06:48:29;;;;;;;26.40;14.55;;;;;;;-2.29;100.00;101795.66;5089597;28;20475;-70
2024/01/09 06:50:54;;;;;;;23.27;14.05;;;;;;;-2.56;100.00;101722.88;5088454;28;20085;-73
2024/01/09 06:53:19;;;;;;;36.80;18.90;;;;;;;-2.21;100.00;101799.41;5087730;28;20035;-75
2024/01/09 06:55:45;;;;;;;26.92;15.13;;;;;;;-2.33;100.00;101783.81;5073503;28;20123;-74
2024/01/09 06:58:12;;;;;;;25.92;14.27;;;;;;;-2.34;100.00;101748.13;5086652;28;20395;-70
2024/01/09 07:00:37;;;;;;;19.92;11.27;;;;;;;-2.79;100.00;101656.97;5073629;28;20044;-70
2024/01/09 07:03:04;;;;;;;21.30;13.00;;;;;;;-2.96;100.00;101602.16;5089513;28;20092;-71
2024/01/09 07:05:35;;;;;;;28.63;14.82;;;;;;;-2.28;100.00;101706.13;5094136;28;20091;-70
2024/01/09 07:08:12;;;;;;;30.08;17.27;;;;;;;-2.30;100.00;101727.59;5089145;28;20428;-69
2024/01/09 07:10:37;;;;;;;29.80;17.75;;;;;;;-2.78;100.00;101625.50;5070901;28;20570;-69
2024/01/09 07:13:03;;;;;;;35.92;22.23;;;;;;;-2.69;100.00;101614.38;5088445;28;20032;-71
2024/01/09 07:15:28;;;;;;;22.55;13.75;;;;;;;-2.46;100.00;101675.28;5070537;28;20024;-69
2024/01/09 07:17:54;;;;;;;27.00;16.80;;;;;;;-2.50;100.00;101617.81;5071299;28;20039;-70
2024/01/09 07:20:24;;;;;;;25.58;15.85;;;;;;;-2.76;100.00;101581.66;5089472;28;20028;-70
2024/01/09 07:22:50;;;;;;;20.60;9.60;;;;;;;-2.77;100.00;101599.81;5088787;28;20071;-69
2024/01/09 07:25:15;;;;;;;22.88;10.25;;;;;;;-2.68;100.00;101615.25;5088910;28;20509;-70
2024/01/09 07:27:41;;;;;;;21.08;13.07;;;;;;;-2.33;100.00;101650.22;5070590;28;20478;-69
2024/01/09 07:30:07;;;;;;;23.65;13.25;;;;;;;-2.65;100.00;101600.44;5088423;28;20119;-70
2024/01/09 07:32:33;;;;;;;39.70;19.70;;;;;;;-2.21;100.00;101655.84;5088131;28;20042;-70
2024/01/09 07:34:58;;;;;;;36.50;19.52;;;;;;;-2.34;100.00;101620.28;5070697;28;20410;-70
2024/01/09 07:37:24;;;;;;;41.33;19.80;;;;;;;-2.48;100.00;101587.25;5088104;28;20028;-70
2024/01/09 07:39:49;;;;;;;35.72;20.60;;;;;;;-2.17;100.00;101642.75;5070174;28;20035;-71
2024/01/09 07:42:15;;;;;;;24.92;15.18;;;;;;;-2.45;100.00;101601.47;5088354;28;20036;-71
2024/01/09 07:44:41;;;;;;;23.58;14.23;;;;;;;-2.28;100.00;101615.63;5087860;28;20469;-70
2024/01/09 07:47:07;;;;;;;29.90;15.40;;;;;;;-2.35;100.00;101592.03;5087386;28;20038;-72
2024/01/09 07:49:33;;;;;;;65.35;21.83;;;;;;;-2.53;100.00;101538.84;5070124;28;20490;-70
2024/01/09 07:51:58;;;;;;;21.60;11.45;;;;;;;-2.71;100.00;101518.91;5087502;28;20031;-71
2024/01/09 07:54:24;;;;;;;23.35;12.95;;;;;;;-2.53;100.00;101557.91;5087678;28;20513;-70
2024/01/09 07:56:49;;;;;;;30.58;15.85;;;;;;;-2.49;100.00;101547.31;5087697;28;20040;-70
2024/01/09 07:59:16;;;;;;;19.90;10.55;;;;;;;-2.66;100.00;101524.13;5087418;28;20541;-70
2024/01/09 08:01:42;;;;;;;19.75;10.85;;;;;;;-2.80;100.00;101485.25;5068966;28;20039;-71
2024/01/09 08:04:07;;;;;;;21.75;11.88;;;;;;;-2.37;100.00;101543.81;5087527;28;20032;-71
2024/01/09 08:06:33;;;;;;;19.70;11.15;;;;;;;-2.58;100.00;101535.31;5087653;28;20085;-70
2024/01/09 08:08:58;;;;;;;17.75;9.95;;;;;;;-2.60;100.00;101516.94;5087319;28;20035;-70
2024/01/09 08:11:23;;;;;;;19.13;11.43;;;;;;;-2.82;100.00;101484.31;5087113;28;20043;-70
2024/01/09 08:13:49;;;;;;;20.85;11.52;;;;;;;-2.48;100.00;101504.25;5087161;28;20109;-71
2024/01/09 08:16:14;;;;;;;23.27;13.00;;;;;;;-2.07;100.00;101552.78;5087055;28;20094;-72
2024/01/09 08:18:40;;;;;;;18.58;10.27;;;;;;;-2.69;100.00;101459.25;5086645;28;20474;-71
2024/01/09 08:21:06;;;;;;;21.13;12.05;;;;;;;-2.35;100.00;101487.47;5068420;28;20494;-70
2024/01/09 08:23:32;;;;;;;19.92;11.50;;;;;;;-2.80;100.00;101428.03;5086040;28;20051;-71
2024/01/09 08:25:58;;;;;;;21.55;13.25;;;;;;;-2.12;100.00;101499.38;5087708;28;21341;-70
2024/01/09 08:28:24;;;;;;;23.63;13.50;;;;;;;-2.38;100.00;101472.41;5086643;28;20039;-70
2024/01/09 08:30:49;;;;;;;20.35;10.30;;;;;;;-2.46;100.00;101452.91;5087343;28;20107;-71
2024/01/09 08:33:15;;;;;;;23.75;13.95;;;;;;;-1.65;100.00;101543.09;5071208;28;20028;-71
2024/01/09 08:35:40;;;;;;;25.08;14.80;;;;;;;-1.50;100.00;101578.69;5091319;28;20024;-70
2024/01/09 08:38:06;;;;;;;24.17;15.02;;;;;;;-1.17;100.00;101577.75;5072683;28;20434;-72
2024/01/09 08:40:31;;;;;;;20.67;12.15;;;;;;;-1.77;100.00;101506.00;5071958;28;20027;-69
2024/01/09 08:42:57;;;;;;;19.17;11.38;;;;;;;-1.61;100.00;101517.53;5090267;28;20054;-70
2024/01/09 08:45:24;;;;;;;18.42;11.10;;;;;;;-1.76;100.00;101475.31;5072023;28;20049;-71
2024/01/09 08:47:50;;;;;;;18.60;11.18;;;;;;;-1.58;100.00;101481.13;5090289;28;20269;-70
2024/01/09 08:50:15;;;;;;;13.95;8.70;;;;;;;-1.42;100.00;101495.13;5072400;28;20469;-73
2024/01/09 08:52:48;;;;;;;16.65;9.18;;;;;;;-1.44;100.00;101481.72;5090533;28;20032;-70
2024/01/09 08:55:13;;;;;;;15.10;9.10;;;;;;;-1.11;100.00;101523.13;5089326;28;20024;-70
2024/01/09 08:57:38;;;;;;;14.43;9.07;;;;;;;-1.65;100.00;101438.41;5071729;28;20032;-69
2024/01/09 09:00:04;;;;;;;13.68;9.10;;;;;;;-1.36;100.00;101482.94;5089956;28;20028;-70
2024/01/09 09:02:30;;;;;;;15.57;8.98;;;;;;;-1.73;100.00;101412.31;5089379;28;20432;-69
2024/01/09 09:04:56;;;;;;;13.18;8.40;;;;;;;-1.72;100.00;101396.59;5072395;28;20107;-69
2024/01/09 09:07:21;;;;;;;16.80;9.30;;;;;;;-1.43;100.00;101461.03;5071547;28;20505;-69
2024/01/09 09:09:47;;;;;;;16.15;9.35;;;;;;;-1.59;100.00;101406.28;5105789;28;20036;-69
2024/01/09 09:12:13;;;;;;;16.08;9.52;;;;;;;-1.41;100.00;101427.91;5089471;28;20127;-70
2024/01/09 09:14:39;;;;;;;15.25;9.18;;;;;;;-1.67;100.00;101383.53;5089675;28;20030;-69
2024/01/09 09:17:04;;;;;;;16.35;8.90;;;;;;;-1.35;100.00;101427.31;5089933;28;20417;-69
2024/01/09 09:19:31;;;;;;;14.40;8.60;;;;;;;-1.60;100.00;101410.41;5089633;28;20485;-69
2024/01/09 09:21:57;;;;;;;13.65;8.35;;;;;;;-2.22;100.00;101315.47;5090407;28;20038;-69
2024/01/09 09:24:23;;;;;;;15.95;8.98;;;;;;;-1.64;100.00;101407.75;5089993;28;20038;-70
2024/01/09 09:26:49;;;;;;;14.10;8.70;;;;;;;-1.79;100.00;101380.50;5071156;28;21876;-71
2024/01/09 09:29:14;;;;;;;17.95;8.85;;;;;;;-1.89;100.00;101334.41;5071202;28;20020;-72
2024/01/09 09:31:39;;;;;;;15.38;9.57;;;;;;;-1.47;100.00;101364.44;5089982;28;20118;-70
2024/01/09 09:34:05;;;;;;;15.20;8.57;;;;;;;-1.88;100.00;101326.13;5088556;28;20078;-77
2024/01/09 09:36:30;;;;;;;12.98;8.38;;;;;;;-1.34;100.00;101381.63;5089800;28;20414;-70
2024/01/09 09:38:56;;;;;;;16.42;9.20;;;;;;;-1.38;100.00;101369.81;5089690;28;20055;-70
2024/01/09 09:41:21;;;;;;;15.90;9.50;;;;;;;-1.64;100.00;101326.31;5089719;28;20036;-71
2024/01/09 09:43:55;;;;;;;14.52;9.02;;;;;;;-1.35;100.00;101332.56;5088732;28;20109;-70
2024/01/09 09:46:26;;;;;;;15.70;8.80;;;;;;;-1.51;100.00;101305.28;5089703;28;20024;-71
2024/01/09 09:48:53;;;;;;;15.15;9.70;;;;;;;-1.50;100.00;101287.88;5088614;28;20456;-71
2024/01/09 09:51:20;;;;;;;14.57;8.77;;;;;;;-1.29;100.00;101291.28;5089169;28;20478;-70
2024/01/09 09:53:46;;;;;;;14.48;9.10;;;;;;;-1.36;100.00;101271.84;5089777;28;20067;-70
2024/01/09 09:56:13;;;;;;;17.58;10.20;;;;;;;-1.76;100.00;101216.16;5089610;28;20032;-69
2024/01/09 09:58:41;;;;;;;16.50;9.88;;;;;;;-1.35;100.00;101272.72;5088860;28;20495;-70
2024/01/09 10:01:11;;;;;;;13.55;9.00;;;;;;;-1.55;100.00;101216.19;5084526;28;20032;-70
2024/01/09 10:03:49;;;;;;;14.30;9.38;;;;;;;-1.45;100.00;101220.75;5088812;28;20494;-70
2024/01/09 10:06:17;;;;;;;14.43;8.85;;;;;;;-1.72;100.00;101160.69;5070709;28;20036;-70
2024/01/09 10:08:46;;;;;;;14.73;9.23;;;;;;;-1.21;100.00;101244.19;5070596;28;20040;-71
2024/01/09 10:11:11;;;;;;;16.43;9.67;;;;;;;-1.51;100.00;101210.56;4736173;28;10000200;-72
2024/01/09 10:13:39;;;;;;;14.88;9.20;;;;;;;-1.57;100.00;101201.19;5069064;28;20098;-71
2024/01/09 10:16:05;;;;;;;13.50;8.73;;;;;;;-1.77;100.00;101159.66;5068577;28;20517;-72
2024/01/09 10:18:32;;;;;;;14.48;8.90;;;;;;;-1.46;100.00;101185.00;5070392;28;20131;-71
2024/01/09 10:21:01;;;;;;;16.35;9.50;;;;;;;-1.22;100.00;101233.34;5087732;28;20020;-71
2024/01/09 10:23:27;;;;;;;16.77;9.80;;;;;;;-1.73;100.00;101143.19;5086819;28;20035;-76
2024/01/09 10:25:53;;;;;;;16.70;9.60;;;;;;;-1.24;100.00;101204.16;5087264;28;20569;-71
2024/01/09 10:28:18;;;;;;;15.80;9.48;;;;;;;-1.65;100.00;101165.13;5087825;28;20096;-72
2024/01/09 10:30:44;;;;;;;20.75;9.85;;;;;;;-2.14;100.00;101070.13;5088581;28;20530;-72
2024/01/09 10:33:13;;;;;;;22.33;11.30;;;;;;;-1.03;100.00;101197.50;5070350;28;20083;-70
2024/01/09 10:35:45;;;;;;;14.85;9.73;;;;;;;-1.49;100.00;101174.94;5085852;28;20036;-69
2024/01/09 10:38:11;;;;;;;16.63;9.98;;;;;;;-2.07;100.00;101094.53;5089185;28;20413;-72
2024/01/09 10:40:37;;;;;;;19.90;10.90;;;;;;;-2.14;100.00;101052.72;5087584;28;20023;-69
2024/01/09 10:43:03;;;;;;;21.52;9.95;;;;;;;-1.87;100.00;101093.69;5088389;28;20486;-71
2024/01/09 10:45:30;;;;;;;25.90;12.63;;;;;;;-1.40;100.00;101147.00;5070126;28;20406;-71
2024/01/09 10:47:58;;;;;;;23.67;11.07;;;;;;;-1.77;100.00;101069.97;5069770;28;20031;-71
2024/01/09 10:50:24;;;;;;;14.32;8.77;;;;;;;-1.22;100.00;101151.06;5068778;28;20032;-71
2024/01/09 10:52:51;;;;;;;16.88;10.07;;;;;;;-1.25;100.00;101128.47;5070567;28;20425;-71
2024/01/09 10:55:18;;;;;;;17.73;10.07;;;;;;;-1.08;100.00;101136.59;5086772;28;20028;-73
2024/01/09 10:57:45;;;;;;;17.30;10.60;;;;;;;-1.19;100.00;101071.34;5087818;28;20016;-72